sensor_id;sensor_type;location;lat;lon;timestamp;pressure;altitude;pressure_sealevel;temperature;humidity
9855;BME280;4966;48.112;9.282;2022-12-29T00:01:24;94493.28;;;2.08;89.93
9855;BME280;4966;48.112;9.282;2022-12-29T00:03:49;94487.75;;;2.00;90.21
9855;BME280;4966;48.112;9.282;2022-12-29T00:06:15;94483.47;;;1.99;90.86
9855;BME280;4966;48.112;9.282;2022-12-29T00:08:40;94479.78;;;1.95;90.99
9855;BME280;4966;48.112;9.282;2022-12-29T00:11:14;94474.78;;;2.07;91.09
9855;BME280;4966;48.112;9.282;2022-12-29T00:13:40;94464.91;;;2.02;91.24
9855;BME280;4966;48.112;9.282;2022-12-29T00:16:25;94461.09;;;2.08;91.11
9855;BME280;4966;48.112;9.282;2022-12-29T00:18:50;94467.69;;;2.16;90.66
9855;BME280;4966;48.112;9.282;2022-12-29T00:21:18;94469.19;;;2.03;92.07
9855;BME280;4966;48.112;9.282;2022-12-29T00:24:02;94474.44;;;2.32;91.23
9855;BME280;4966;48.112;9.282;2022-12-29T00:26:49;94476.97;;;2.43;90.33
9855;BME280;4966;48.112;9.282;2022-12-29T00:29:36;94474.47;;;2.46;90.73
9855;BME280;4966;48.112;9.282;2022-12-29T00:32:20;94482.59;;;2.03;91.37
9855;BME280;4966;48.112;9.282;2022-12-29T00:35:04;94472.00;;;1.50;94.13
9855;BME280;4966;48.112;9.282;2022-12-29T00:37:42;94462.81;;;1.56;93.52
9855;BME280;4966;48.112;9.282;2022-12-29T00:40:27;94471.28;;;1.87;91.84
9855;BME280;4966;48.112;9.282;2022-12-29T00:43:11;94474.63;;;1.98;90.98
9855;BME280;4966;48.112;9.282;2022-12-29T00:45:54;94468.97;;;2.00;91.71
9855;BME280;4966;48.112;9.282;2022-12-29T00:48:20;94458.97;;;2.24;90.85
9855;BME280;4966;48.112;9.282;2022-12-29T00:51:06;94455.78;;;2.22;91.01
9855;BME280;4966;48.112;9.282;2022-12-29T00:53:32;94448.56;;;2.23;91.06
9855;BME280;4966;48.112;9.282;2022-12-29T00:55:57;94456.22;;;2.29;90.54
9855;BME280;4966;48.112;9.282;2022-12-29T00:58:23;94453.16;;;2.36;90.61
9855;BME280;4966;48.112;9.282;2022-12-29T01:00:48;94451.16;;;2.61;87.82
9855;BME280;4966;48.112;9.282;2022-12-29T01:03:14;94458.16;;;2.62;87.97
9855;BME280;4966;48.112;9.282;2022-12-29T01:05:39;94464.06;;;2.45;88.87
9855;BME280;4966;48.112;9.282;2022-12-29T01:08:04;94454.78;;;2.37;89.81
9855;BME280;4966;48.112;9.282;2022-12-29T01:10:30;94458.19;;;2.24;90.83
9855;BME280;4966;48.112;9.282;2022-12-29T01:12:55;94469.34;;;2.12;92.21
9855;BME280;4966;48.112;9.282;2022-12-29T01:15:21;94452.91;;;2.19;93.00
9855;BME280;4966;48.112;9.282;2022-12-29T01:17:46;94456.72;;;2.31;92.61
9855;BME280;4966;48.112;9.282;2022-12-29T01:20:12;94459.91;;;2.33;92.85
9855;BME280;4966;48.112;9.282;2022-12-29T01:22:38;94457.38;;;2.42;91.95
9855;BME280;4966;48.112;9.282;2022-12-29T01:25:05;94452.13;;;2.51;91.80
9855;BME280;4966;48.112;9.282;2022-12-29T01:27:30;94455.31;;;2.53;91.58
9855;BME280;4966;48.112;9.282;2022-12-29T01:29:56;94461.13;;;2.60;90.85
9855;BME280;4966;48.112;9.282;2022-12-29T01:32:21;94453.91;;;2.74;89.95
9855;BME280;4966;48.112;9.282;2022-12-29T01:34:47;94448.88;;;2.54;91.20
9855;BME280;4966;48.112;9.282;2022-12-29T01:37:12;94459.41;;;2.50;92.25
9855;BME280;4966;48.112;9.282;2022-12-29T01:39:37;94456.56;;;2.42;92.93
9855;BME280;4966;48.112;9.282;2022-12-29T01:42:03;94454.69;;;2.61;92.65
9855;BME280;4966;48.112;9.282;2022-12-29T01:44:49;94462.84;;;2.70;92.23
9855;BME280;4966;48.112;9.282;2022-12-29T01:47:20;94458.81;;;2.86;91.78
9855;BME280;4966;48.112;9.282;2022-12-29T01:49:47;94459.78;;;2.76;91.96
9855;BME280;4966;48.112;9.282;2022-12-29T01:52:13;94461.38;;;2.77;92.54
9855;BME280;4966;48.112;9.282;2022-12-29T01:54:44;94459.63;;;2.87;92.27
9855;BME280;4966;48.112;9.282;2022-12-29T01:57:17;94459.34;;;2.88;92.60
9855;BME280;4966;48.112;9.282;2022-12-29T02:00:07;94451.88;;;2.85;93.09
9855;BME280;4966;48.112;9.282;2022-12-29T02:02:34;94457.09;;;2.76;93.99
9855;BME280;4966;48.112;9.282;2022-12-29T02:05:05;94455.03;;;2.87;93.23
9855;BME280;4966;48.112;9.282;2022-12-29T02:07:32;94458.91;;;2.81;94.29
9855;BME280;4966;48.112;9.282;2022-12-29T02:09:59;94461.94;;;2.93;93.98
9855;BME280;4966;48.112;9.282;2022-12-29T02:12:26;94467.31;;;2.93;93.92
9855;BME280;4966;48.112;9.282;2022-12-29T02:14:56;94459.78;;;3.09;93.02
9855;BME280;4966;48.112;9.282;2022-12-29T02:23:04;94446.44;;;3.18;91.28
9855;BME280;4966;48.112;9.282;2022-12-29T02:28:54;94432.88;;;2.95;90.83
9855;BME280;4966;48.112;9.282;2022-12-29T02:31:52;94429.69;;;2.93;89.97
9855;BME280;4966;48.112;9.282;2022-12-29T02:37:06;94439.81;;;2.31;95.70
9855;BME280;4966;48.112;9.282;2022-12-29T02:40:22;94447.94;;;2.45;96.60
9855;BME280;4966;48.112;9.282;2022-12-29T02:43:04;94449.31;;;2.61;95.70
9855;BME280;4966;48.112;9.282;2022-12-29T02:45:42;94446.28;;;2.82;95.42
9855;BME280;4966;48.112;9.282;2022-12-29T02:48:20;94428.09;;;3.06;93.80
9855;BME280;4966;48.112;9.282;2022-12-29T02:53:35;94422.41;;;2.94;92.07
9855;BME280;4966;48.112;9.282;2022-12-29T02:56:20;94421.91;;;2.78;91.03
9855;BME280;4966;48.112;9.282;2022-12-29T02:58:46;94423.75;;;2.77;90.22
9855;BME280;4966;48.112;9.282;2022-12-29T03:01:36;94430.72;;;2.65;91.14
9855;BME280;4966;48.112;9.282;2022-12-29T03:04:48;94418.84;;;2.52;91.63
9855;BME280;4966;48.112;9.282;2022-12-29T03:10:07;94414.53;;;2.37;94.92
9855;BME280;4966;48.112;9.282;2022-12-29T03:15:48;94416.06;;;2.57;94.35
9855;BME280;4966;48.112;9.282;2022-12-29T03:18:37;94413.34;;;2.76;92.33
9855;BME280;4966;48.112;9.282;2022-12-29T03:21:17;94409.34;;;2.73;92.02
9855;BME280;4966;48.112;9.282;2022-12-29T03:23:48;94407.50;;;2.88;91.33
9855;BME280;4966;48.112;9.282;2022-12-29T03:26:16;94407.63;;;2.64;93.20
9855;BME280;4966;48.112;9.282;2022-12-29T03:28:50;94418.06;;;2.51;94.60
9855;BME280;4966;48.112;9.282;2022-12-29T03:31:19;94423.53;;;2.60;94.96
9855;BME280;4966;48.112;9.282;2022-12-29T03:33:46;94425.84;;;2.67;94.99
9855;BME280;4966;48.112;9.282;2022-12-29T03:39:02;94419.81;;;2.89;92.52
9855;BME280;4966;48.112;9.282;2022-12-29T03:41:32;94416.44;;;2.83;92.67
9855;BME280;4966;48.112;9.282;2022-12-29T03:43:58;94414.66;;;3.06;91.58
9855;BME280;4966;48.112;9.282;2022-12-29T03:46:24;94414.97;;;2.91;92.01
9855;BME280;4966;48.112;9.282;2022-12-29T03:48:49;94418.81;;;2.85;92.22
9855;BME280;4966;48.112;9.282;2022-12-29T03:51:14;94405.88;;;2.87;92.27
9855;BME280;4966;48.112;9.282;2022-12-29T03:53:40;94407.41;;;2.93;92.20
9855;BME280;4966;48.112;9.282;2022-12-29T03:56:05;94404.91;;;2.83;92.07
9855;BME280;4966;48.112;9.282;2022-12-29T03:58:31;94418.16;;;2.60;93.68
9855;BME280;4966;48.112;9.282;2022-12-29T04:00:56;94415.56;;;2.88;92.35
9855;BME280;4966;48.112;9.282;2022-12-29T04:03:21;94402.31;;;2.91;92.10
9855;BME280;4966;48.112;9.282;2022-12-29T04:05:47;94401.72;;;2.81;92.44
9855;BME280;4966;48.112;9.282;2022-12-29T04:08:12;94403.38;;;2.76;92.72
9855;BME280;4966;48.112;9.282;2022-12-29T04:10:37;94407.66;;;2.77;92.46
9855;BME280;4966;48.112;9.282;2022-12-29T04:13:03;94392.34;;;2.78;92.05
9855;BME280;4966;48.112;9.282;2022-12-29T04:15:28;94390.03;;;2.71;91.42
9855;BME280;4966;48.112;9.282;2022-12-29T04:17:53;94390.72;;;2.63;91.42
9855;BME280;4966;48.112;9.282;2022-12-29T04:20:19;94381.81;;;2.49;92.87
9855;BME280;4966;48.112;9.282;2022-12-29T04:23:04;94383.38;;;2.69;92.76
9855;BME280;4966;48.112;9.282;2022-12-29T04:25:31;94381.44;;;2.55;93.21
9855;BME280;4966;48.112;9.282;2022-12-29T04:27:57;94384.91;;;2.42;94.66
9855;BME280;4966;48.112;9.282;2022-12-29T04:30:23;94382.25;;;2.23;96.34
9855;BME280;4966;48.112;9.282;2022-12-29T04:32:48;94388.50;;;2.19;97.06
9855;BME280;4966;48.112;9.282;2022-12-29T04:35:14;94380.91;;;2.40;95.60
9855;BME280;4966;48.112;9.282;2022-12-29T04:37:39;94382.03;;;2.52;94.60
9855;BME280;4966;48.112;9.282;2022-12-29T04:40:05;94369.78;;;2.46;94.19
9855;BME280;4966;48.112;9.282;2022-12-29T04:42:30;94364.72;;;2.45;93.31
9855;BME280;4966;48.112;9.282;2022-12-29T04:44:56;94363.50;;;2.37;92.43
9855;BME280;4966;48.112;9.282;2022-12-29T04:47:21;94381.75;;;2.02;93.47
9855;BME280;4966;48.112;9.282;2022-12-29T04:49:46;94378.72;;;2.09;92.88
9855;BME280;4966;48.112;9.282;2022-12-29T04:52:12;94377.38;;;2.25;91.91
9855;BME280;4966;48.112;9.282;2022-12-29T04:54:37;94384.69;;;2.39;91.82
9855;BME280;4966;48.112;9.282;2022-12-29T04:57:03;94371.72;;;2.27;90.85
9855;BME280;4966;48.112;9.282;2022-12-29T04:59:28;94379.78;;;2.08;91.10
9855;BME280;4966;48.112;9.282;2022-12-29T05:01:53;94381.16;;;2.05;90.91
9855;BME280;4966;48.112;9.282;2022-12-29T05:04:19;94383.72;;;1.97;91.21
9855;BME280;4966;48.112;9.282;2022-12-29T05:06:44;94386.31;;;1.83;92.19
9855;BME280;4966;48.112;9.282;2022-12-29T05:09:09;94393.34;;;1.79;94.18
9855;BME280;4966;48.112;9.282;2022-12-29T05:11:35;94396.63;;;1.95;93.08
9855;BME280;4966;48.112;9.282;2022-12-29T05:14:00;94391.47;;;1.98;93.13
9855;BME280;4966;48.112;9.282;2022-12-29T05:16:25;94392.63;;;2.11;93.51
9855;BME280;4966;48.112;9.282;2022-12-29T05:18:51;94398.78;;;1.92;94.38
9855;BME280;4966;48.112;9.282;2022-12-29T05:21:16;94401.41;;;1.98;94.90
9855;BME280;4966;48.112;9.282;2022-12-29T05:23:41;94404.94;;;2.12;93.19
9855;BME280;4966;48.112;9.282;2022-12-29T05:26:07;94410.53;;;2.16;91.99
9855;BME280;4966;48.112;9.282;2022-12-29T05:28:32;94415.91;;;1.97;91.67
9855;BME280;4966;48.112;9.282;2022-12-29T05:30:57;94407.63;;;1.93;91.42
9855;BME280;4966;48.112;9.282;2022-12-29T05:33:23;94403.22;;;1.83;91.20
9855;BME280;4966;48.112;9.282;2022-12-29T05:35:48;94400.69;;;1.73;91.52
9855;BME280;4966;48.112;9.282;2022-12-29T05:38:13;94411.19;;;1.45;93.44
9855;BME280;4966;48.112;9.282;2022-12-29T05:40:39;94419.88;;;1.61;92.38
9855;BME280;4966;48.112;9.282;2022-12-29T05:43:04;94414.59;;;1.75;92.33
9855;BME280;4966;48.112;9.282;2022-12-29T05:45:29;94414.81;;;1.98;91.67
9855;BME280;4966;48.112;9.282;2022-12-29T05:47:55;94408.66;;;1.97;91.28
9855;BME280;4966;48.112;9.282;2022-12-29T05:50:20;94410.56;;;1.97;95.45
9855;BME280;4966;48.112;9.282;2022-12-29T05:52:45;94405.22;;;2.29;97.33
9855;BME280;4966;48.112;9.282;2022-12-29T05:55:11;94410.53;;;2.67;98.37
9855;BME280;4966;48.112;9.282;2022-12-29T05:57:37;94403.41;;;2.90;97.77
9855;BME280;4966;48.112;9.282;2022-12-29T06:00:04;94399.53;;;2.96;96.58
9855;BME280;4966;48.112;9.282;2022-12-29T06:02:30;94390.78;;;3.32;97.20
9855;BME280;4966;48.112;9.282;2022-12-29T06:04:55;94395.66;;;3.58;95.53
9855;BME280;4966;48.112;9.282;2022-12-29T06:07:20;94400.03;;;3.81;94.72
9855;BME280;4966;48.112;9.282;2022-12-29T06:09:46;94397.41;;;3.90;93.67
9855;BME280;4966;48.112;9.282;2022-12-29T06:12:11;94390.00;;;4.10;91.68
9855;BME280;4966;48.112;9.282;2022-12-29T06:14:36;94384.34;;;4.34;90.98
9855;BME280;4966;48.112;9.282;2022-12-29T06:17:02;94392.81;;;4.27;90.03
9855;BME280;4966;48.112;9.282;2022-12-29T06:19:27;94399.03;;;4.14;90.65
9855;BME280;4966;48.112;9.282;2022-12-29T06:21:52;94408.22;;;4.13;90.73
9855;BME280;4966;48.112;9.282;2022-12-29T06:24:19;94406.94;;;4.10;91.09
9855;BME280;4966;48.112;9.282;2022-12-29T06:26:44;94409.94;;;4.09;92.04
9855;BME280;4966;48.112;9.282;2022-12-29T06:29:09;94402.16;;;4.07;92.16
9855;BME280;4966;48.112;9.282;2022-12-29T06:31:35;94400.84;;;4.04;91.99
9855;BME280;4966;48.112;9.282;2022-12-29T06:34:00;94392.31;;;4.02;91.16
9855;BME280;4966;48.112;9.282;2022-12-29T06:36:25;94398.50;;;3.89;91.19
9855;BME280;4966;48.112;9.282;2022-12-29T06:38:51;94394.78;;;3.62;92.06
9855;BME280;4966;48.112;9.282;2022-12-29T06:41:20;94402.72;;;3.68;91.07
9855;BME280;4966;48.112;9.282;2022-12-29T06:43:45;94392.19;;;3.57;91.06
9855;BME280;4966;48.112;9.282;2022-12-29T06:46:11;94403.63;;;3.49;91.48
9855;BME280;4966;48.112;9.282;2022-12-29T06:48:36;94404.44;;;3.50;91.60
9855;BME280;4966;48.112;9.282;2022-12-29T06:51:01;94401.22;;;3.75;92.71
9855;BME280;4966;48.112;9.282;2022-12-29T06:53:27;94399.31;;;3.90;93.59
9855;BME280;4966;48.112;9.282;2022-12-29T06:55:52;94392.69;;;4.10;94.56
9855;BME280;4966;48.112;9.282;2022-12-29T06:58:18;94396.50;;;4.31;94.85
9855;BME280;4966;48.112;9.282;2022-12-29T07:00:44;94392.63;;;4.68;93.31
9855;BME280;4966;48.112;9.282;2022-12-29T07:03:10;94402.78;;;4.72;91.86
9855;BME280;4966;48.112;9.282;2022-12-29T07:05:35;94398.59;;;4.79;91.68
9855;BME280;4966;48.112;9.282;2022-12-29T07:08:00;94392.56;;;4.82;90.64
9855;BME280;4966;48.112;9.282;2022-12-29T07:10:26;94391.16;;;4.85;90.36
9855;BME280;4966;48.112;9.282;2022-12-29T07:12:51;94384.63;;;4.77;90.70
9855;BME280;4966;48.112;9.282;2022-12-29T07:15:17;94395.75;;;4.84;90.25
9855;BME280;4966;48.112;9.282;2022-12-29T07:17:42;94394.06;;;4.97;89.51
9855;BME280;4966;48.112;9.282;2022-12-29T07:20:08;94396.09;;;4.92;89.80
9855;BME280;4966;48.112;9.282;2022-12-29T07:22:34;94387.88;;;4.97;89.27
9855;BME280;4966;48.112;9.282;2022-12-29T07:24:59;94392.84;;;5.03;87.76
9855;BME280;4966;48.112;9.282;2022-12-29T07:27:25;94395.69;;;4.98;87.93
9855;BME280;4966;48.112;9.282;2022-12-29T07:29:50;94397.75;;;4.79;89.40
9855;BME280;4966;48.112;9.282;2022-12-29T07:32:15;94396.91;;;4.92;88.36
9855;BME280;4966;48.112;9.282;2022-12-29T07:34:41;94397.16;;;4.82;89.69
9855;BME280;4966;48.112;9.282;2022-12-29T07:37:06;94396.25;;;4.86;89.50
9855;BME280;4966;48.112;9.282;2022-12-29T07:39:32;94406.91;;;5.00;88.57
9855;BME280;4966;48.112;9.282;2022-12-29T07:41:57;94390.06;;;5.17;88.11
9855;BME280;4966;48.112;9.282;2022-12-29T07:44:23;94398.16;;;5.17;87.60
9855;BME280;4966;48.112;9.282;2022-12-29T07:46:48;94395.66;;;5.29;86.90
9855;BME280;4966;48.112;9.282;2022-12-29T07:49:13;94400.72;;;5.31;86.90
9855;BME280;4966;48.112;9.282;2022-12-29T07:51:39;94394.75;;;5.43;85.54
9855;BME280;4966;48.112;9.282;2022-12-29T07:54:04;94400.94;;;5.43;85.64
9855;BME280;4966;48.112;9.282;2022-12-29T07:56:30;94409.66;;;5.40;85.56
9855;BME280;4966;48.112;9.282;2022-12-29T07:58:55;94413.47;;;5.39;85.69
9855;BME280;4966;48.112;9.282;2022-12-29T08:01:20;94410.78;;;5.39;85.43
9855;BME280;4966;48.112;9.282;2022-12-29T08:03:48;94406.59;;;5.24;86.28
9855;BME280;4966;48.112;9.282;2022-12-29T08:06:13;94408.03;;;5.30;86.21
9855;BME280;4966;48.112;9.282;2022-12-29T08:08:39;94400.88;;;5.26;85.85
9855;BME280;4966;48.112;9.282;2022-12-29T08:11:04;94408.78;;;5.22;85.56
9855;BME280;4966;48.112;9.282;2022-12-29T08:13:30;94423.78;;;5.06;86.55
9855;BME280;4966;48.112;9.282;2022-12-29T08:15:57;94429.03;;;5.11;85.99
9855;BME280;4966;48.112;9.282;2022-12-29T08:18:22;94435.63;;;4.96;86.79
9855;BME280;4966;48.112;9.282;2022-12-29T08:20:48;94420.84;;;4.94;86.33
9855;BME280;4966;48.112;9.282;2022-12-29T08:23:13;94422.75;;;4.93;86.79
9855;BME280;4966;48.112;9.282;2022-12-29T08:25:38;94436.22;;;4.93;86.56
9855;BME280;4966;48.112;9.282;2022-12-29T08:28:04;94436.19;;;4.84;86.74
9855;BME280;4966;48.112;9.282;2022-12-29T08:30:29;94440.78;;;4.84;87.27
9855;BME280;4966;48.112;9.282;2022-12-29T08:32:54;94440.28;;;4.82;87.17
9855;BME280;4966;48.112;9.282;2022-12-29T08:35:20;94435.97;;;4.81;87.62
9855;BME280;4966;48.112;9.282;2022-12-29T08:37:45;94449.91;;;4.74;88.43
9855;BME280;4966;48.112;9.282;2022-12-29T08:40:10;94441.06;;;4.82;88.63
9855;BME280;4966;48.112;9.282;2022-12-29T08:42:36;94447.19;;;4.97;88.48
9855;BME280;4966;48.112;9.282;2022-12-29T08:45:02;94450.75;;;5.06;88.55
9855;BME280;4966;48.112;9.282;2022-12-29T08:47:27;94452.19;;;5.12;88.14
9855;BME280;4966;48.112;9.282;2022-12-29T08:49:52;94452.91;;;5.26;87.61
9855;BME280;4966;48.112;9.282;2022-12-29T08:52:18;94451.53;;;5.38;87.81
9855;BME280;4966;48.112;9.282;2022-12-29T08:54:44;94460.41;;;5.38;87.88
9855;BME280;4966;48.112;9.282;2022-12-29T08:57:09;94456.56;;;5.62;87.53
9855;BME280;4966;48.112;9.282;2022-12-29T08:59:35;94450.13;;;5.80;86.95
9855;BME280;4966;48.112;9.282;2022-12-29T09:02:00;94454.25;;;5.86;87.25
9855;BME280;4966;48.112;9.282;2022-12-29T09:04:26;94450.84;;;6.12;86.61
9855;BME280;4966;48.112;9.282;2022-12-29T09:06:52;94450.69;;;6.08;86.50
9855;BME280;4966;48.112;9.282;2022-12-29T09:09:17;94460.44;;;6.44;85.37
9855;BME280;4966;48.112;9.282;2022-12-29T09:11:43;94464.41;;;6.55;84.66
9855;BME280;4966;48.112;9.282;2022-12-29T09:14:08;94464.25;;;6.43;84.79
9855;BME280;4966;48.112;9.282;2022-12-29T09:16:35;94450.91;;;6.64;84.41
9855;BME280;4966;48.112;9.282;2022-12-29T09:19:00;94454.88;;;6.67;83.93
9855;BME280;4966;48.112;9.282;2022-12-29T09:21:26;94457.09;;;6.82;83.51
9855;BME280;4966;48.112;9.282;2022-12-29T09:23:51;94458.66;;;6.92;82.88
9855;BME280;4966;48.112;9.282;2022-12-29T09:26:17;94468.88;;;6.95;83.64
9855;BME280;4966;48.112;9.282;2022-12-29T09:28:42;94462.28;;;7.31;81.89
9855;BME280;4966;48.112;9.282;2022-12-29T09:31:09;94455.34;;;7.59;80.52
9855;BME280;4966;48.112;9.282;2022-12-29T09:33:34;94451.19;;;7.62;81.49
9855;BME280;4966;48.112;9.282;2022-12-29T09:36:00;94454.38;;;7.64;80.36
9855;BME280;4966;48.112;9.282;2022-12-29T09:38:26;94456.13;;;7.98;79.45
9855;BME280;4966;48.112;9.282;2022-12-29T09:40:55;94455.09;;;8.12;79.51
9855;BME280;4966;48.112;9.282;2022-12-29T09:48:43;94440.31;;;8.60;78.03
9855;BME280;4966;48.112;9.282;2022-12-29T09:51:13;94448.72;;;8.67;77.52
9855;BME280;4966;48.112;9.282;2022-12-29T09:53:46;94458.78;;;8.79;76.59
9855;BME280;4966;48.112;9.282;2022-12-29T09:56:21;94462.19;;;8.76;76.16
9855;BME280;4966;48.112;9.282;2022-12-29T10:01:36;94449.13;;;8.90;75.82
9855;BME280;4966;48.112;9.282;2022-12-29T10:04:06;94445.91;;;8.97;75.69
9855;BME280;4966;48.112;9.282;2022-12-29T10:06:52;94445.25;;;9.12;75.31
9855;BME280;4966;48.112;9.282;2022-12-29T10:17:39;94431.69;;;9.57;73.28
9855;BME280;4966;48.112;9.282;2022-12-29T10:20:14;94432.28;;;9.63;72.55
9855;BME280;4966;48.112;9.282;2022-12-29T10:25:33;94419.25;;;9.56;73.49
9855;BME280;4966;48.112;9.282;2022-12-29T10:28:05;94416.84;;;9.55;73.18
9855;BME280;4966;48.112;9.282;2022-12-29T10:30:33;94418.06;;;9.33;73.61
9855;BME280;4966;48.112;9.282;2022-12-29T10:33:05;94412.00;;;9.48;73.24
9855;BME280;4966;48.112;9.282;2022-12-29T10:35:35;94411.44;;;9.55;72.53
9855;BME280;4966;48.112;9.282;2022-12-29T10:38:11;94403.63;;;9.41;73.00
9855;BME280;4966;48.112;9.282;2022-12-29T10:40:47;94398.78;;;9.59;72.58
9855;BME280;4966;48.112;9.282;2022-12-29T10:45:47;94393.44;;;9.50;72.72
9855;BME280;4966;48.112;9.282;2022-12-29T10:48:20;94397.97;;;9.46;72.61
9855;BME280;4966;48.112;9.282;2022-12-29T10:50:48;94391.19;;;9.52;72.03
9855;BME280;4966;48.112;9.282;2022-12-29T10:53:27;94394.47;;;9.70;71.61
9855;BME280;4966;48.112;9.282;2022-12-29T10:55:56;94395.47;;;9.41;72.83
9855;BME280;4966;48.112;9.282;2022-12-29T10:58:22;94389.75;;;9.79;71.62
9855;BME280;4966;48.112;9.282;2022-12-29T11:00:52;94393.00;;;9.61;72.12
9855;BME280;4966;48.112;9.282;2022-12-29T11:03:46;94396.81;;;9.35;72.55
9855;BME280;4966;48.112;9.282;2022-12-29T11:06:20;94395.59;;;9.69;71.76
9855;BME280;4966;48.112;9.282;2022-12-29T11:08:59;94395.03;;;9.76;71.58
9855;BME280;4966;48.112;9.282;2022-12-29T11:11:33;94395.72;;;9.61;72.16
9855;BME280;4966;48.112;9.282;2022-12-29T11:14:21;94398.91;;;9.63;71.56
9855;BME280;4966;48.112;9.282;2022-12-29T11:17:05;94394.13;;;9.59;71.56
9855;BME280;4966;48.112;9.282;2022-12-29T11:19:32;94391.50;;;10.12;70.33
9855;BME280;4966;48.112;9.282;2022-12-29T11:22:28;94380.63;;;10.12;70.18
9855;BME280;4966;48.112;9.282;2022-12-29T11:24:54;94386.97;;;10.16;69.45
9855;BME280;4966;48.112;9.282;2022-12-29T11:27:25;94392.53;;;10.20;69.16
9855;BME280;4966;48.112;9.282;2022-12-29T11:29:52;94394.66;;;10.39;69.12
9855;BME280;4966;48.112;9.282;2022-12-29T11:32:26;94391.28;;;10.42;69.14
9855;BME280;4966;48.112;9.282;2022-12-29T11:34:52;94382.59;;;10.64;68.30
9855;BME280;4966;48.112;9.282;2022-12-29T11:37:26;94377.59;;;10.95;67.09
9855;BME280;4966;48.112;9.282;2022-12-29T11:42:38;94382.34;;;10.98;66.66
9855;BME280;4966;48.112;9.282;2022-12-29T11:45:20;94373.44;;;10.85;67.42
9855;BME280;4966;48.112;9.282;2022-12-29T11:48:07;94382.59;;;10.64;67.53
9855;BME280;4966;48.112;9.282;2022-12-29T11:50:39;94368.59;;;11.06;66.72
9855;BME280;4966;48.112;9.282;2022-12-29T11:53:18;94375.28;;;10.81;65.81
9855;BME280;4966;48.112;9.282;2022-12-29T11:55:56;94367.97;;;11.13;65.64
9855;BME280;4966;48.112;9.282;2022-12-29T11:58:33;94368.84;;;11.01;66.07
9855;BME280;4966;48.112;9.282;2022-12-29T12:01:02;94364.66;;;10.92;65.91
9855;BME280;4966;48.112;9.282;2022-12-29T12:03:32;94367.28;;;11.32;64.98
9855;BME280;4966;48.112;9.282;2022-12-29T12:06:03;94364.56;;;11.16;64.68
9855;BME280;4966;48.112;9.282;2022-12-29T12:08:54;94365.38;;;11.33;64.22
9855;BME280;4966;48.112;9.282;2022-12-29T12:11:28;94359.94;;;11.33;64.29
9855;BME280;4966;48.112;9.282;2022-12-29T12:14:23;94356.13;;;11.37;65.43
9855;BME280;4966;48.112;9.282;2022-12-29T12:16:56;94356.84;;;11.18;65.34
9855;BME280;4966;48.112;9.282;2022-12-29T12:19:34;94360.69;;;11.17;65.76
9855;BME280;4966;48.112;9.282;2022-12-29T12:22:26;94353.75;;;11.04;66.70
9855;BME280;4966;48.112;9.282;2022-12-29T12:25:04;94352.03;;;10.83;66.57
9855;BME280;4966;48.112;9.282;2022-12-29T12:27:40;94350.53;;;11.30;65.77
9855;BME280;4966;48.112;9.282;2022-12-29T12:32:46;94341.06;;;10.80;66.19
9855;BME280;4966;48.112;9.282;2022-12-29T12:35:15;94349.88;;;10.77;66.45
9855;BME280;4966;48.112;9.282;2022-12-29T12:43:50;94337.41;;;11.52;64.71
9855;BME280;4966;48.112;9.282;2022-12-29T13:00:08;94324.94;;;10.59;69.28
9855;BME280;4966;48.112;9.282;2022-12-29T13:16:34;94332.47;;;12.05;63.82
9855;BME280;4966;48.112;9.282;2022-12-29T13:19:33;94318.44;;;11.87;63.84
9855;BME280;4966;48.112;9.282;2022-12-29T13:22:25;94326.78;;;11.62;64.45
9855;BME280;4966;48.112;9.282;2022-12-29T13:25:04;94329.84;;;11.77;64.40
9855;BME280;4966;48.112;9.282;2022-12-29T13:30:09;94322.97;;;12.15;64.41
9855;BME280;4966;48.112;9.282;2022-12-29T13:33:03;94318.44;;;12.22;62.51
9855;BME280;4966;48.112;9.282;2022-12-29T13:38:03;94318.03;;;12.79;62.91
9855;BME280;4966;48.112;9.282;2022-12-29T13:40:36;94327.72;;;12.76;61.89
9855;BME280;4966;48.112;9.282;2022-12-29T13:43:05;94320.88;;;13.05;60.61
9855;BME280;4966;48.112;9.282;2022-12-29T13:45:32;94316.09;;;12.79;60.85
9855;BME280;4966;48.112;9.282;2022-12-29T13:48:22;94322.63;;;12.55;60.93
9855;BME280;4966;48.112;9.282;2022-12-29T13:50:55;94314.66;;;12.27;61.61
9855;BME280;4966;48.112;9.282;2022-12-29T13:58:36;94307.19;;;12.43;61.10
9855;BME280;4966;48.112;9.282;2022-12-29T14:01:15;94321.09;;;12.19;61.70
9855;BME280;4966;48.112;9.282;2022-12-29T14:03:49;94324.16;;;11.98;62.77
9855;BME280;4966;48.112;9.282;2022-12-29T14:06:24;94312.50;;;11.85;62.61
9855;BME280;4966;48.112;9.282;2022-12-29T14:09:03;94313.84;;;12.07;62.57
9855;BME280;4966;48.112;9.282;2022-12-29T14:11:40;94310.69;;;11.89;62.78
9855;BME280;4966;48.112;9.282;2022-12-29T14:14:23;94305.25;;;12.24;62.52
9855;BME280;4966;48.112;9.282;2022-12-29T14:16:51;94309.91;;;12.24;62.80
9855;BME280;4966;48.112;9.282;2022-12-29T14:19:18;94313.25;;;11.98;62.73
9855;BME280;4966;48.112;9.282;2022-12-29T14:21:53;94316.56;;;12.07;63.12
9855;BME280;4966;48.112;9.282;2022-12-29T14:34:46;94310.41;;;11.94;63.19
9855;BME280;4966;48.112;9.282;2022-12-29T14:39:48;94305.34;;;11.93;63.60
9855;BME280;4966;48.112;9.282;2022-12-29T14:42:15;94303.47;;;11.97;63.42
9855;BME280;4966;48.112;9.282;2022-12-29T14:45:04;94304.56;;;11.60;64.99
9855;BME280;4966;48.112;9.282;2022-12-29T14:47:51;94312.56;;;11.69;64.47
9855;BME280;4966;48.112;9.282;2022-12-29T14:52:48;94323.28;;;11.62;65.35
9855;BME280;4966;48.112;9.282;2022-12-29T14:57:58;94334.00;;;11.39;67.18
9855;BME280;4966;48.112;9.282;2022-12-29T15:00:30;94330.69;;;10.85;70.34
9855;BME280;4966;48.112;9.282;2022-12-29T15:03:05;94327.34;;;10.76;71.50
9855;BME280;4966;48.112;9.282;2022-12-29T15:05:37;94338.72;;;10.38;72.55
9855;BME280;4966;48.112;9.282;2022-12-29T15:08:07;94342.38;;;10.30;74.36
9855;BME280;4966;48.112;9.282;2022-12-29T15:10:40;94351.09;;;10.11;74.95
9855;BME280;4966;48.112;9.282;2022-12-29T15:13:15;94345.19;;;10.21;75.81
9855;BME280;4966;48.112;9.282;2022-12-29T15:15:41;94355.16;;;10.29;75.63
9855;BME280;4966;48.112;9.282;2022-12-29T15:18:26;94346.78;;;10.10;76.61
9855;BME280;4966;48.112;9.282;2022-12-29T15:21:04;94350.06;;;10.03;77.27
9855;BME280;4966;48.112;9.282;2022-12-29T15:23:32;94344.84;;;10.22;76.81
9855;BME280;4966;48.112;9.282;2022-12-29T15:26:05;94352.19;;;10.22;76.69
9855;BME280;4966;48.112;9.282;2022-12-29T15:28:44;94353.13;;;10.14;77.37
9855;BME280;4966;48.112;9.282;2022-12-29T15:31:21;94344.84;;;10.22;76.86
9855;BME280;4966;48.112;9.282;2022-12-29T15:33:51;94339.66;;;10.30;76.90
9855;BME280;4966;48.112;9.282;2022-12-29T15:36:22;94345.97;;;10.21;77.12
9855;BME280;4966;48.112;9.282;2022-12-29T15:38:49;94351.66;;;10.16;77.51